Tiempo atmosférico en la estación meteorológica de La Oliva, Puerto de Corralejo, Las Palmas (6 m.)



Fecha
DESCASC
Temp. máxima en grados centígrados (hora)
DESCASC
Temp. mínima en grados centígrados (hora)
DESCASC
Temp. media en grados centígrados
DESCASC
Racha de viento máxima en m/sg (hora)
DESCASC
Velocidad máxima media en intervalos de 10 minutos(hora)
DESCASC
Precipitaciones diarias en mm
DESCASC
Precipitaciones de 00:00 a 06:00 en mm
DESCASC
Precipitaciones de 06:00 a 12:00 en mm
DESCASC
Precipitaciones de 12:00 a 18:00 en mm
DESCASC
Precipitaciones de 18:00 a 24:00 en mm
DESCASC
10-11-2019 22 (15:10) 19.1 (00:00) 20.6 14.44 (03:00) 10.56 (01:10) 0 0 0 0 0
09-11-2019 21.5 (14:00) 19.5 (00:00) 20.5 17.22 (07:00) 12.22 (15:10) 0 0 0 0 0
08-11-2019 22.1 (11:00) 20 (00:00) 21.1 15.83 (19:00) 11.94 (14:20) 0 0 0 0 0
07-11-2019 22.3 (12:00) 20 (00:00) 21.1 15.28 (15:00) 10.28 (19:40) 0 0 0 0 0
06-11-2019 22.3 (13:00) 20.1 (00:00) 21.2 14.72 (17:00) 11.11 (17:20) 0 0 0 0 0
05-11-2019 23.5 (13:50) 20.7 (00:00) 22.1 13.61 (12:00) 11.11 (19:10) 0 0 0 0 0
04-11-2019 23.4 (12:30) 20.1 (00:00) 21.8 12.5 (20:00) 9.72 (14:30) 0 0 0 0 0
03-11-2019 24.4 (13:20) 21.3 (00:00) 22.8 12.22 (12:00) 8.33 (13:00) 0 0 0 0 0
02-11-2019 24.4 (13:20) 21.4 (00:00) 22.9 11.39 (15:00) 7.5 (15:40) 0 0 0 0 0
01-11-2019 25.7 (12:30) 22 (00:00) 23.9 14.17 (03:00) 8.89 (01:40) 0 0 0 0 0
31-10-2019 26.9 (14:00) 21.9 (05:10) 24.4 13.33 (20:00) 9.17 (19:50) 0 0 0 0 0
30-10-2019 25.9 (17:30) 21.4 (00:00) 23.6 9.17 (10:00) 6.39 (09:40) 0 0 0 0 0
29-10-2019 23.7 (15:20) 21.8 (00:00) 22.8 7.22 (11:00) 5.28 (11:10) 0 0 0 0 0
28-10-2019 25 (15:30) 21.4 (00:00) 23.2 6.67 (09:00) 4.72 (02:20) 0 0 0 0 0
27-10-2019 27.3 (12:30) 21.8 (00:00) 24.5 10 (01:00) 6.39 (00:40) 0 0 0 0 0
26-10-2019 26.9 (16:20) 21.2 (00:00) 24.1 11.11 (17:50) 6.67 (17:50) 2.4 0 0 0.4 2
25-10-2019 23 (14:00) 19.6 (00:00) 21.3 7.78 (11:00) 5.56 (13:20) 0 0 0 0 0
24-10-2019 22.6 (13:30) 19.7 (00:00) 21.2 10 (05:00) 7.22 (15:10) 0 0 0 0 0
23-10-2019 22.6 (15:30) 19.6 (00:00) 21.1 11.94 (14:00) 7.78 (08:40) 0 0 0 0 0
22-10-2019 22.9 (14:50) 20 (00:00) 21.4 13.06 (12:00) 8.89 (12:40) 0 0 0 0 0
21-10-2019 22.9 (15:00) 20.3 (00:00) 21.6 18.61 (12:00) 11.39 (12:00) 0 0 0 0 0
20-10-2019 23.8 (11:20) 20.9 (00:00) 22.3 13.33 (12:00) 8.89 (12:00) 0.4 0 0 0.4 0
19-10-2019 24 (12:00) 21.3 (00:00) 22.6 13.61 (15:00) 8.33 (17:50) 0 0 0 0 0
18-10-2019 25.8 (11:40) 21 (00:00) 23.4 13.33 (16:00) 8.89 (15:50) 0 0 0 0 0
17-10-2019 24.6 (13:50) 20.5 (00:00) 22.6 9.17 (11:00) 7.22 (19:10) 0 0 0 0 0
16-10-2019 24.2 (11:50) 20.4 (00:00) 22.3 8.33 (13:00) 6.11 (12:40) 0 0 0 0 0
15-10-2019 24.4 (14:50) 20.8 (00:00) 22.6 11.11 (19:00) 7.78 (18:20) 0 0 0 0 0
14-10-2019 24.7 (12:50) 20.4 (00:00) 22.6 10 (19:00) 6.39 (21:20) 0 0 0 0 0

Gráficas

Temp. máximas Temp. mínimas Temp. medias Precipitaciones Rachas de viento máximas Velocidades máximas media en intervalos de 10 minutos

Datos horarios

Fecha y hora oficial Temperatura (ºC) Velocidad del viento (km/h) Dirección del viento Racha (km/h) Dirección de racha Precipitación (mm) Presión (hPa) Tendencia (hPa) Humedad (%)
2019-11-12 23:00:00 20 30 Norte 41 Norte 0 -- -- 76
2019-11-12 22:00:00 20 35 Norte 54 Norte 0 -- -- 78
2019-11-12 21:00:00 20 27 Norte 38 Norte 0 -- -- 75
2019-11-12 20:00:00 20.1 30 Norte 44 Norte 0 -- -- 73
2019-11-12 19:00:00 20.2 35 Norte 46 Norte 0 -- -- 72
2019-11-12 18:00:00 20.5 37 Norte 49 Norte 0 -- -- 71
2019-11-12 17:00:00 20.8 41 Norte 63 Norte 0 -- -- 70
2019-11-12 16:00:00 21.2 41 Norte 62 Norte 0 -- -- 67
2019-11-12 15:00:00 21.7 39 Norte 48 Norte 0 -- -- 65
2019-11-12 14:00:00 21.9 37 Norte 50 Norte 0 -- -- 67
2019-11-12 13:00:00 21.8 34 Norte 44 Norte 0 -- -- 66
2019-11-12 12:00:00 21.7 33 Norte 42 Norte 0 -- -- 75
2019-11-12 11:00:00 21.1 24 Norte 33 Norte 0 -- -- 85
2019-11-12 10:00:00 20.7 27 Norte 44 Norte 0 -- -- 87
2019-11-12 09:00:00 21 31 Norte 49 Norte 0 -- -- 78
2019-11-12 08:00:00 21 27 Norte 43 Nordeste 0 -- -- 78
2019-11-12 07:00:00 20.7 29 Norte 44 Norte 0 -- -- 76
2019-11-12 06:00:00 20.7 23 Norte 35 Norte 0 -- -- 76
2019-11-12 05:00:00 20.5 24 Nordeste 40 Norte 0 -- -- 78
2019-11-12 04:00:00 20.5 34 Norte 51 Norte 0 -- -- 77
2019-11-12 03:00:00 20.5 30 Norte 51 Norte 0 -- -- 73
2019-11-12 02:00:00 20.3 38 Norte 56 Norte 0 -- -- 73
2019-11-12 01:00:00 20.4 27 Norte 55 Norte 0 -- -- 71
2019-11-12 00:00:00 20.5 37 Norte 55 Norte 0 -- -- 72
2019-11-11 23:00:00 20.4 36 Norte 51 Norte 0 -- -- 72
2019-11-11 22:00:00 20.4 35 Norte 49 Norte 0 -- -- 71
2019-11-11 21:00:00 20.4 40 Norte 68 Norte 0 -- -- 72
2019-11-11 20:00:00 20.6 27 Norte 50 Norte 0 -- -- 71
2019-11-11 19:00:00 20.6 39 Norte 58 Norte 0 -- -- 69
2019-11-11 18:00:00 20.5 44 Norte 57 Norte 0 -- -- 69
2019-11-11 17:00:00 21 39 Norte 60 Norte 0 -- -- 68
2019-11-11 16:00:00 21.2 48 Norte 69 Norte 0 -- -- 66
2019-11-11 15:00:00 21.4 51 Norte 66 Norte 0 -- -- 64
2019-11-11 14:00:00 21.4 51 Norte 73 Norte 0 -- -- 64
2019-11-11 13:00:00 21.5 47 Norte 63 Norte 0 -- -- 63
2019-11-11 12:00:00 21.9 26 Norte 58 Norte 0 -- -- 57
2019-11-11 11:00:00 21.2 39 Norte 55 Norte 0 -- -- 62
2019-11-11 10:00:00 20.9 33 Norte 45 Norte 0 -- -- 63
2019-11-11 09:00:00 20.5 30 Norte 41 Norte 0 -- -- 65
2019-11-11 08:00:00 19.8 27 Norte 44 Norte 0 -- -- 65
2019-11-11 07:00:00 19.8 33 Norte 47 Norte 0 -- -- 67
2019-11-11 06:00:00 19.8 32 Norte 49 Norte 0 -- -- 68
2019-11-11 05:00:00 20.1 28 Norte 40 Norte 0 -- -- 69
2019-11-11 04:00:00 20.1 29 Norte 40 Norte 0 -- -- 66
2019-11-11 03:00:00 20 29 Norte 42 Norte 0 -- -- 63
2019-11-11 02:00:00 19.9 30 Norte 40 Norte 0 -- -- 61
2019-11-11 01:00:00 20.1 31 Norte 43 Norte 0 -- -- 62
2019-11-11 00:00:00 20.1 29 Norte 49 Nordeste 0 -- -- 64
2019-11-10 23:00:00 20.4 19 Norte 34 Norte 0 -- -- 64
2019-11-10 22:00:00 20.2 35 Norte 48 Norte 0 -- -- 65
2019-11-10 21:00:00 20.3 28 Norte 43 Nordeste 0 -- -- 65
2019-11-10 20:00:00 20.1 33 Norte 45 Norte 0 -- -- 65
2019-11-10 19:00:00 20.2 30 Nordeste 41 Norte 0 -- -- 65
2019-11-10 18:00:00 20.5 31 Norte 44 Norte 0 -- -- 66
2019-11-10 17:00:00 21.4 31 Nordeste 46 Nordeste 0 -- -- 67
2019-11-10 16:00:00 21.8 36 Nordeste 46 Nordeste 0 -- -- 67
2019-11-10 15:00:00 21.9 30 Nordeste 43 Nordeste 0 -- -- 66
2019-11-10 14:00:00 21.8 35 Nordeste 51 Nordeste 0 -- -- 66
2019-11-10 13:00:00 21.5 35 Nordeste 43 Nordeste 0 -- -- 65
2019-11-10 12:00:00 21.7 27 Nordeste 43 Este 0 -- -- 60
2019-11-10 11:00:00 21.1 31 Nordeste 41 Nordeste 0 -- -- 62
2019-11-10 10:00:00 20.7 30 Nordeste 43 Nordeste 0 -- -- 62
2019-11-10 09:00:00 19.7 26 Nordeste 36 Norte 0 -- -- 65
2019-11-10 08:00:00 19.3 28 Nordeste 44 Nordeste 0 -- -- 63
2019-11-10 07:00:00 19.2 28 Norte 42 Nordeste 0 -- -- 66
2019-11-10 06:00:00 19.2 26 Nordeste 36 Nordeste 0 -- -- 66
2019-11-10 05:00:00 19.3 28 Nordeste 42 Nordeste 0 -- -- 66
2019-11-10 04:00:00 19.3 30 Norte 47 Norte 0 -- -- 65
2019-11-10 03:00:00 19.4 34 Norte 52 Norte 0 -- -- 66
2019-11-10 02:00:00 19.5 35 Norte 48 Nordeste 0 -- -- 65
2019-11-10 01:00:00 19.5 36 Norte 48 Norte 0 -- -- 64
2019-11-10 00:00:00 19.6 35 Nordeste 49 Norte 0 -- -- 63
2019-11-09 23:00:00 19.7 31 Norte 44 Nordeste 0 -- -- 67
2019-11-09 22:00:00 20.1 31 Norte 43 Nordeste 0 -- -- 69
2019-11-09 21:00:00 20 28 Norte 45 Norte 0 -- -- 63
2019-11-09 20:00:00 19.9 32 Norte 47 Nordeste 0 -- -- 61
2019-11-09 19:00:00 20 32 Norte 49 Norte 0 -- -- 60
2019-11-09 18:00:00 20.2 42 Norte 58 Norte 0 -- -- 60
2019-11-09 17:00:00 20.6 35 Norte 47 Norte 0 -- -- 58
2019-11-09 16:00:00 20.9 40 Norte 58 Norte 0 -- -- 54
2019-11-09 15:00:00 21 40 Norte 48 Norte 0 -- -- 58
2019-11-09 14:00:00 21.5 37 Norte 57 Norte 0 -- -- 56
2019-11-09 13:00:00 21.1 39 Nordeste 56 Nordeste 0 -- -- 55
2019-11-09 12:00:00 21.1 37 Norte 52 Norte 0 -- -- 56
2019-11-09 11:00:00 21 33 Norte 51 Norte 0 -- -- 56
2019-11-09 10:00:00 20.6 40 Nordeste 48 Nordeste 0 -- -- 62
2019-11-09 09:00:00 20.4 36 Norte 48 Norte 0 -- -- 56
2019-11-09 08:00:00 20.1 35 Norte 48 Nordeste 0 -- -- 61
2019-11-09 07:00:00 19.7 35 Norte 62 Norte 0 -- -- 68
2019-11-09 06:00:00 20 32 Norte 44 Norte 0 -- -- 65
2019-11-09 05:00:00 20.2 33 Norte 43 Norte 0 -- -- 66
2019-11-09 04:00:00 20 28 Norte 43 Norte 0 -- -- 63
2019-11-09 03:00:00 20.2 34 Norte 45 Norte 0 -- -- 63
2019-11-09 02:00:00 20.1 30 Norte 41 Norte 0 -- -- 64
2019-11-09 01:00:00 20.4 30 Norte 43 Norte 0 -- -- 61
2019-11-09 00:00:00 20.1 28 Norte 43 Norte 0 -- -- 62
2019-11-08 23:00:00 20.1 31 Nordeste 41 Norte 0 -- -- 60
2019-11-08 22:00:00 20.1 36 Norte 53 Norte 0 -- -- 60
2019-11-08 21:00:00 20.2 31 Norte 49 Norte 0 -- -- 63
2019-11-08 20:00:00 20.4 37 Norte 48 Norte 0 -- -- 62
2019-11-08 19:00:00 20.4 37 Norte 57 Norte 0 -- -- 61
2019-11-08 18:00:00 20.7 39 Norte 56 Norte 0 -- -- 62
2019-11-08 17:00:00 21.1 38 Norte 53 Nordeste 0 -- -- 59
2019-11-08 16:00:00 21.3 41 Nordeste 57 Nordeste 0 -- -- 56
2019-11-08 15:00:00 21.5 39 Nordeste 55 Nordeste 0 -- -- 58
2019-11-08 14:00:00 22 35 Nordeste 45 Nordeste 0 -- -- 60
2019-11-08 13:00:00 21.4 37 Nordeste 53 Norte 0 -- -- 59
2019-11-08 12:00:00 21.8 34 Norte 54 Norte 0 -- -- 61
2019-11-08 11:00:00 22.1 33 Nordeste 48 Nordeste 0 -- -- 65
2019-11-08 10:00:00 21.5 34 Nordeste 51 Nordeste 0 -- -- 69
2019-11-08 09:00:00 20.9 27 Nordeste 39 Nordeste 0 -- -- 79
2019-11-08 08:00:00 21 30 Nordeste 43 Nordeste 0 -- -- 79
2019-11-08 07:00:00 21 19 Nordeste 30 Nordeste 0 -- -- 76
2019-11-08 06:00:00 20.8 24 Norte 33 Norte 0 -- -- 74
2019-11-08 05:00:00 20.7 24 Norte 36 Norte 0 -- -- 75
2019-11-08 04:00:00 20.8 25 Norte 34 Norte 0 -- -- 74
2019-11-08 03:00:00 20.7 23 Nordeste 35 Nordeste 0 -- -- 71
2019-11-08 02:00:00 20.7 16 Nordeste 30 Nordeste 0 -- -- 70
2019-11-08 01:00:00 20.8 19 Nordeste 34 Nordeste 0 -- -- 70
2019-11-08 00:00:00 20.9 29 Norte 42 Norte 0 -- -- 69
2019-11-07 23:00:00 20.8 26 Nordeste 42 Nordeste 0 -- -- 69
2019-11-07 22:00:00 21 32 Nordeste 41 Nordeste 0 -- -- 70
2019-11-07 21:00:00 21 32 Nordeste 54 Norte 0 -- -- 70
2019-11-07 20:00:00 20.8 35 Nordeste 45 Nordeste 0 -- -- 69
2019-11-07 19:00:00 20.7 31 Nordeste 41 Nordeste 0 -- -- 67
2019-11-07 18:00:00 21.3 27 Nordeste 43 Nordeste 0 -- -- 66
2019-11-07 17:00:00 21.6 30 Nordeste 44 Este 0 -- -- 66
2019-11-07 16:00:00 21.9 32 Nordeste 46 Nordeste 0 -- -- 65
2019-11-07 15:00:00 21.9 35 Nordeste 55 Nordeste 0 -- -- 65
2019-11-07 14:00:00 22.1 29 Nordeste 44 Nordeste 0 -- -- 65
2019-11-07 13:00:00 22 31 Nordeste 50 Nordeste 0 -- -- 65
2019-11-07 12:00:00 22.3 30 Nordeste 40 Nordeste 0 -- -- 59
2019-11-07 11:00:00 21.9 32 Nordeste 44 Nordeste 0 -- -- 61
2019-11-07 10:00:00 21.4 33 Nordeste 40 Nordeste 0 -- -- 62
2019-11-07 09:00:00 21 30 Nordeste 42 Norte 0 -- -- 66
2019-11-07 08:00:00 20.3 27 Nordeste 37 Nordeste 0 -- -- 65
2019-11-07 07:00:00 20.3 24 Norte 39 Norte 0 -- -- 67
2019-11-07 06:00:00 20.1 23 Norte 31 Norte 0 -- -- 67
2019-11-07 05:00:00 20.1 27 Norte 41 Norte 0 -- -- 66
2019-11-07 04:00:00 20.2 29 Nordeste 41 Nordeste 0 -- -- 66
2019-11-07 03:00:00 20.2 30 Nordeste 41 Norte 0 -- -- 68
2019-11-07 02:00:00 20.5 24 Norte 33 Norte 0 -- -- 69
2019-11-07 01:00:00 20.8 27 Norte 42 Norte 0 -- -- 67
2019-11-07 00:00:00 20.6 25 Norte 42 Nordeste 0 -- -- 61
2019-11-06 23:00:00 20.6 32 Nordeste 47 Nordeste 0 -- -- 64
2019-11-06 22:00:00 20.8 30 Norte 37 Norte 0 -- -- 61
2019-11-06 21:00:00 20.7 24 Norte 39 Norte 0 -- -- 63
2019-11-06 20:00:00 20.7 26 Norte 42 Norte 0 -- -- 58
2019-11-06 19:00:00 20.9 32 Norte 47 Norte 0 -- -- 60
2019-11-06 18:00:00 21.3 35 Norte 49 Norte 0 -- -- 64
2019-11-06 17:00:00 21.3 39 Norte 53 Norte 0 -- -- 65
2019-11-06 16:00:00 21.9 35 Norte 51 Norte 0 -- -- 61
2019-11-06 15:00:00 21.8 37 Norte 50 Norte 0 -- -- 60
2019-11-06 14:00:00 21.7 36 Norte 46 Norte 0 -- -- 60
2019-11-06 13:00:00 22.3 33 Norte 49 Norte 0 -- -- 55
2019-11-06 12:00:00 22 35 Norte 47 Norte 0 -- -- 55
2019-11-06 11:00:00 21.7 36 Norte 46 Norte 0 -- -- 54
2019-11-06 10:00:00 21.4 34 Norte 44 Norte 0 -- -- 60
2019-11-06 09:00:00 20.9 28 Norte 41 Norte 0 -- -- 64
2019-11-06 08:00:00 20.3 27 Norte 41 Norte 0 -- -- 64
2019-11-06 07:00:00 20.3 25 Norte 37 Norte 0 -- -- 61
2019-11-06 06:00:00 20.3 29 Norte 41 Norte 0 -- -- 66
2019-11-06 05:00:00 20.4 28 Norte 35 Norte 0 -- -- 64
2019-11-06 04:00:00 20.5 27 Norte 37 Norte 0 -- -- 65
2019-11-06 03:00:00 20.4 26 Norte 40 Norte 0 -- -- 66
2019-11-06 02:00:00 20.8 31 Norte 48 Norte 0 -- -- 54
2019-11-06 01:00:00 20.6 24 Norte 36 Norte 0 -- -- 68
2019-11-06 00:00:00 20.7 25 Norte 35 Norte 0 -- -- 65
2019-11-05 23:00:00 20.7 26 Norte 40 Norte 0 -- -- 65
2019-11-05 22:00:00 20.8 28 Norte 39 Norte 0 -- -- 65
2019-11-05 21:00:00 20.8 30 Norte 44 Norte 0 -- -- 65
2019-11-05 20:00:00 21.1 30 Norte 49 Norte 0 -- -- 71
2019-11-05 19:00:00 21.4 34 Norte 47 Norte 0 -- -- 79
2019-11-05 18:00:00 21.1 31 Norte 42 Norte 0 -- -- 86
2019-11-05 17:00:00 21.8 28 Norte 42 Norte 0 -- -- 77
2019-11-05 16:00:00 22.6 31 Norte 40 Noroeste 0 -- -- 72
2019-11-05 15:00:00 23.4 29 Noroeste 45 Norte 0 -- -- 66
2019-11-05 14:00:00 23.5 26 Norte 37 Noroeste 0 -- -- 68
2019-11-05 13:00:00 23.3 29 Noroeste 39 Noroeste 0 -- -- 68
2019-11-05 12:00:00 23 29 Norte 49 Noroeste 0 -- -- 66
2019-11-05 11:00:00 22.7 27 Norte 43 Norte 0 -- -- 71
2019-11-05 10:00:00 22.8 24 Norte 33 Noroeste 0 -- -- 70
2019-11-05 09:00:00 22.5 23 Norte 31 Norte 0 -- -- 72
2019-11-05 08:00:00 21.5 22 Norte 29 Norte 0 -- -- 81
2019-11-05 07:00:00 21.3 13 Norte 17 Norte 0 -- -- 82
2019-11-05 06:00:00 21.2 9 Norte 20 Norte 0 -- -- 81
2019-11-05 05:00:00 21.2 15 Norte 27 Norte 0 -- -- 76
2019-11-05 04:00:00 21.5 19 Norte 32 Norte 0 -- -- 76
2019-11-05 03:00:00 21.8 26 Norte 37 Norte 0 -- -- 75
2019-11-05 02:00:00 21.9 24 Norte 37 Norte 0 -- -- 70
2019-11-05 01:00:00 21.9 32 Norte 45 Noroeste 0 -- -- 68
2019-11-05 00:00:00 22.2 30 Norte 42 Norte 0 -- -- 75
2019-11-04 23:00:00 21.9 29 Noroeste 43 Noroeste 0 -- -- 76
2019-11-04 22:00:00 21.9 15 Norte 34 Norte 0 -- -- 76
2019-11-04 21:00:00 21.8 27 Norte 37 Norte 0 -- -- 77
2019-11-04 20:00:00 21.7 28 Norte 45 Norte 0 -- -- 74
2019-11-04 19:00:00 21.8 20 Norte 33 Norte 0 -- -- 77
2019-11-04 18:00:00 21.9 24 Norte 36 Norte 0 -- -- 76
2019-11-04 17:00:00 22.5 25 Norte 34 Norte 0 -- -- 70
2019-11-04 16:00:00 22.7 25 Noroeste 33 Noroeste 0 -- -- 73
2019-11-04 15:00:00 22 25 Norte 40 Norte 0 -- -- 71
2019-11-04 14:00:00 23.4 31 Noroeste 37 Noroeste 0 -- -- 68
2019-11-04 13:00:00 22.9 33 Norte 44 Norte 0 -- -- 69
2019-11-04 12:00:00 22.8 24 Norte 37 Norte 0 -- -- 75
2019-11-04 11:00:00 22.3 27 Norte 42 Norte 0 -- -- 81
2019-11-04 10:00:00 22.2 21 Norte 37 Norte 0 -- -- 79
2019-11-04 09:00:00 21.7 22 Norte 32 Norte 0 -- -- 82
2019-11-04 08:00:00 21.1 24 Norte 39 Norte 0 -- -- 84
2019-11-04 07:00:00 21.4 15 Norte 21 Norte 0 -- -- 81
2019-11-04 06:00:00 20.6 12 Nordeste 25 Norte 0 -- -- 88
2019-11-04 05:00:00 20.1 17 Norte 37 Norte 0 -- -- 89
2019-11-04 04:00:00 21.3 14 Norte 23 Norte 0 -- -- 77
2019-11-04 03:00:00 21.3 17 Norte 24 Norte 0 -- -- 78
2019-11-04 02:00:00 21.1 15 Norte 23 Norte 0 -- -- 78
2019-11-04 01:00:00 21.2 18 Norte 28 Norte 0 -- -- 78
2019-11-04 00:00:00 21.4 15 Norte 22 Norte 0 -- -- 75
2019-11-03 23:00:00 21.5 18 Norte 33 Norte 0 -- -- 74
2019-11-03 22:00:00 21.6 28 Norte 37 Noroeste 0 -- -- 71
2019-11-03 21:00:00 21.9 23 Norte 35 Norte 0 -- -- 73
2019-11-03 20:00:00 21.8 26 Norte 35 Norte 0 -- -- 79
2019-11-03 19:00:00 22.2 22 Norte 29 Norte 0 -- -- 77
2019-11-03 18:00:00 22.5 22 Noroeste 27 Noroeste 0 -- -- 70
2019-11-03 17:00:00 23.1 19 Noroeste 28 Noroeste 0 -- -- 65
2019-11-03 16:00:00 23.5 22 Noroeste 30 Noroeste 0 -- -- 69
2019-11-03 15:00:00 23.8 22 Noroeste 34 Noroeste 0 -- -- 67
2019-11-03 14:00:00 24.3 24 Noroeste 39 Noroeste 0 -- -- 65
2019-11-03 13:00:00 24.2 30 Norte 44 Norte 0 -- -- 68
2019-11-03 12:00:00 24 27 Norte 44 Norte 0 -- -- 82
2019-11-03 11:00:00 23.7 15 Noroeste 25 Noroeste 0 -- -- 83
2019-11-03 10:00:00 23.7 9 Norte 13 Norte 0 -- -- 80
2019-11-03 09:00:00 23.6 3 Noroeste 7 Norte 0 -- -- 83
2019-11-03 08:00:00 22.4 4 Norte 12 Norte 0 -- -- 87
2019-11-03 07:00:00 21.8 10 Norte 14 Norte 0 -- -- 90
2019-11-03 06:00:00 21.6 9 Norte 15 Norte 0 -- -- 90
2019-11-03 05:00:00 21.7 2 Nordeste 12 Norte 0 -- -- 89
2019-11-03 04:00:00 21.9 9 Norte 23 Norte 0 -- -- 90
2019-11-03 03:00:00 22 17 Norte 28 Norte 0 -- -- 91
2019-11-03 02:00:00 21.7 16 Noroeste 23 Noroeste 0 -- -- 93
2019-11-03 01:00:00 21.9 13 Noroeste 28 Norte 0 -- -- 93
2019-11-03 00:00:00 22 19 Norte 26 Norte 0 -- -- 94
2019-11-02 23:00:00 22.2 17 Norte 22 Norte 0 -- -- 93
2019-11-02 22:00:00 22.3 14 Norte 21 Noroeste 0 -- -- 93
2019-11-02 21:00:00 22.6 11 Noroeste 24 Norte 0 -- -- 90
2019-11-02 20:00:00 22.5 18 Norte 30 Norte 0 -- -- 93
2019-11-02 19:00:00 22.7 23 Norte 31 Norte 0 -- -- 93
2019-11-02 18:00:00 23 23 Norte 33 Norte 0 -- -- 92
2019-11-02 17:00:00 23.6 18 Noroeste 31 Noroeste 0 -- -- 89
2019-11-02 16:00:00 23.7 27 Noroeste 36 Noroeste 0 -- -- 88
2019-11-02 15:00:00 24.2 22 Noroeste 41 Noroeste 0 -- -- 85
2019-11-02 14:00:00 24.2 22 Noroeste 33 Noroeste 0 -- -- 84
2019-11-02 13:00:00 24.1 21 Noroeste 28 Noroeste 0 -- -- 84
2019-11-02 12:00:00 24.2 15 Noroeste 24 Norte 0 -- -- 84
2019-11-02 11:00:00 24.3 13 Noroeste 24 Noroeste 0 -- -- 85
2019-11-02 10:00:00 23.6 17 Noroeste 23 Noroeste 0 -- -- 86
2019-11-02 09:00:00 23.6 12 Norte 25 Noroeste 0 -- -- 85
2019-11-02 08:00:00 22.3 16 Noroeste 26 Noroeste 0 -- -- 88
2019-11-02 07:00:00 21.8 16 Noroeste 23 Noroeste 0 -- -- 90
2019-11-02 06:00:00 22 7 Norte 16 Nordeste 0 -- -- 90
2019-11-02 05:00:00 22.4 9 Norte 19 Norte 0 -- -- 87
2019-11-02 04:00:00 22.2 13 Norte 19 Noroeste 0 -- -- 89
2019-11-02 03:00:00 22.1 10 Noroeste 15 Noroeste 0 -- -- 88
2019-11-02 02:00:00 22.2 4 Noroeste 25 Noroeste 0 -- -- 87
2019-11-02 01:00:00 22.2 18 Norte 30 Noroeste 0 -- -- 90
2019-11-02 00:00:00 22.1 20 Noroeste 33 Norte 0 -- -- 92
2019-11-01 23:00:00 22.1 22 Noroeste 30 Noroeste 0 -- -- 92
2019-11-01 22:00:00 22.2 14 Noroeste 25 Noroeste 0 -- -- 91
2019-11-01 21:00:00 22.2 21 Norte 36 Norte 0 -- -- 91
2019-11-01 20:00:00 22.4 22 Noroeste 31 Noroeste 0 -- -- 91
2019-11-01 19:00:00 22.5 22 Noroeste 36 Noroeste 0 -- -- 90
2019-11-01 18:00:00 22.8 27 Noroeste 42 Noroeste 0 -- -- 88
2019-11-01 17:00:00 23.7 23 Noroeste 32 Noroeste 0 -- -- 83
2019-11-01 16:00:00 24.3 18 Noroeste 39 Noroeste 0 -- -- 82
2019-11-01 15:00:00 23.7 29 Noroeste 40 Noroeste 0 -- -- 79
2019-11-01 14:00:00 24.6 22 Noroeste 39 Noroeste 0 -- -- 74
2019-11-01 13:00:00 25 18 Noroeste 28 Noroeste 0 -- -- 68
2019-11-01 12:00:00 25.1 14 Nordeste 28 Nordeste 0 -- -- 70
2019-11-01 11:00:00 24.8 13 Nordeste 19 Nordeste 0 -- -- 68
2019-11-01 10:00:00 23.9 12 Nordeste 31 Norte 0 -- -- 77
2019-11-01 09:00:00 23.1 24 Nordeste 44 Norte 0 -- -- 80
2019-11-01 08:00:00 22.5 28 Nordeste 38 Nordeste 0 -- -- 84
2019-11-01 07:00:00 22.3 30 Nordeste 44 Nordeste 0 -- -- 85
2019-11-01 06:00:00 22.4 30 Nordeste 38 Nordeste 0 -- -- 85
2019-11-01 05:00:00 22.4 18 Nordeste 28 Nordeste 0 -- -- 86
2019-11-01 04:00:00 22.3 24 Nordeste 36 Nordeste 0 -- -- 86
2019-11-01 03:00:00 22.5 28 Nordeste 51 Nordeste 0 -- -- 85
2019-11-01 02:00:00 22.5 31 Nordeste 50 Nordeste 0 -- -- 86
2019-11-01 01:00:00 22.5 26 Nordeste 40 Nordeste 0 -- -- 85
2019-11-01 00:00:00 22.6 9 Nordeste 30 Norte 0 -- -- 81
2019-10-31 23:00:00 22.9 26 Norte 36 Norte 0 -- -- 80
2019-10-31 22:00:00 22.9 30 Norte 44 Norte 0 -- -- 81
2019-10-31 21:00:00 22.9 26 Norte 41 Norte 0 -- -- 80
2019-10-31 20:00:00 23 32 Norte 48 Norte 0 -- -- 76
2019-10-31 19:00:00 23.1 31 Norte 44 Norte 0 -- -- 74
2019-10-31 18:00:00 23.7 25 Norte 36 Norte 0 -- -- 70
2019-10-31 17:00:00 24.1 23 Nordeste 30 Nordeste 0 -- -- 69
2019-10-31 16:00:00 24.8 17 Norte 26 Nordeste 0 -- -- 66
2019-10-31 15:00:00 25.1 21 Nordeste 24 Nordeste 0 -- -- 63
2019-10-31 14:00:00 26.9 10 Este 24 Nordeste 0 -- -- 59
2019-10-31 13:00:00 25.3 13 Nordeste 22 Nordeste 0 -- -- 67
2019-10-31 12:00:00 24.9 19 Nordeste 29 Nordeste 0 -- -- 67
2019-10-31 11:00:00 24.2 19 Norte 29 Norte 0 -- -- 71
2019-10-31 10:00:00 23.7 21 Norte 34 Norte 0 -- -- 77
2019-10-31 09:00:00 23 25 Norte 39 Norte 0 -- -- 82
2019-10-31 08:00:00 22.5 21 Norte 30 Norte 0 -- -- 84
2019-10-31 07:00:00 22.1 13 Norte 30 Norte 0 -- -- 85
2019-10-31 06:00:00 22.2 27 Norte 41 Norte 0 -- -- 86
2019-10-31 05:00:00 22 25 Norte 41 Norte 0 -- -- 90
2019-10-31 04:00:00 22.1 23 Norte 37 Norte 0 -- -- 90
2019-10-31 03:00:00 22.1 23 Norte 33 Norte 0 -- -- 90
2019-10-31 02:00:00 22.3 28 Norte 44 Norte 0 -- -- 90
2019-10-31 01:00:00 22.4 24 Norte 31 Norte 0 -- -- 90
2019-10-31 00:00:00 22.3 21 Norte 28 Norte 0 -- -- 90
2019-10-30 23:00:00 22.7 19 Norte 26 Norte 0 -- -- 86
2019-10-30 22:00:00 22.7 3 Noroeste 6 Noroeste 0 -- -- 83
2019-10-30 21:00:00 23 2 Sudoeste 6 Oeste 0 -- -- 83
2019-10-30 20:00:00 23.1 2 Sudoeste 10 Norte 0 -- -- 87
2019-10-30 19:00:00 23.6 12 Norte 20 Norte 0 -- -- 85
2019-10-30 18:00:00 25.1 2 Sudeste 4 Sur 0 -- -- 61
2019-10-30 17:00:00 25.1 2 Norte 12 Norte 0 -- -- 67
2019-10-30 16:00:00 24.6 7 Norte 10 Nordeste 0 -- -- 69
2019-10-30 15:00:00 25.1 9 Norte 15 Norte 0 -- -- 67
2019-10-30 14:00:00 24.3 11 Nordeste 21 Este 0 -- -- 73
2019-10-30 13:00:00 25 14 Este 22 Este 0 -- -- 75
2019-10-30 12:00:00 24 15 Este 25 Este 0 -- -- 84
2019-10-30 11:00:00 23.7 18 Este 30 Este 0 -- -- 84
2019-10-30 10:00:00 23.7 21 Este 33 Nordeste 0 -- -- 86
2019-10-30 09:00:00 23.2 19 Este 28 Este 0 -- -- 89
2019-10-30 08:00:00 22.1 17 Este 23 Este 0 -- -- 95
2019-10-30 07:00:00 22 13 Este 18 Este 0 -- -- 95
2019-10-30 06:00:00 22.1 11 Este 17 Este 0 -- -- 94
2019-10-30 05:00:00 21.7 3 Este 5 Este 0 -- -- 93
2019-10-30 04:00:00 21.9 0 Calma 4 Oeste 0 -- -- 92
2019-10-30 03:00:00 21.7 3 Oeste 6 Noroeste 0 -- -- 90
2019-10-30 02:00:00 22.9 4 Noroeste 8 Noroeste 0 -- -- 80
2019-10-30 01:00:00 22.5 4 Sur 7 Sur 0 -- -- 66
2019-10-30 00:00:00 22.6 4 Sur 9 Sur 0 -- -- 70
2019-10-29 23:00:00 22.7 4 Sur 8 Sudeste 0 -- -- 69
2019-10-29 22:00:00 22.9 4 Sur 9 Sudeste 0 -- -- 73
2019-10-29 21:00:00 22.8 6 Sudeste 9 Sur 0 -- -- 82
2019-10-29 20:00:00 22.7 5 Sur 8 Sudeste 0 -- -- 88
2019-10-29 19:00:00 22.8 4 Este 7 Sudeste 0 -- -- 88
2019-10-29 18:00:00 23 6 Sudeste 11 Sudeste 0 -- -- 86
2019-10-29 17:00:00 23.7 9 Sudeste 15 Sudeste 0 -- -- 84
2019-10-29 16:00:00 23.6 12 Sudeste 18 Este 0 -- -- 84
2019-10-29 15:00:00 23.5 14 Sudeste 19 Sudeste 0 -- -- 84
2019-10-29 14:00:00 23.4 15 Sudeste 23 Este 0 -- -- 86
2019-10-29 13:00:00 23 16 Sudeste 24 Este 0 -- -- 88
2019-10-29 12:00:00 23.3 17 Este 24 Este 0 -- -- 87
2019-10-29 11:00:00 23.1 19 Sudeste 26 Este 0 -- -- 88
2019-10-29 10:00:00 23 19 Sudeste 22 Este 0 -- -- 89
2019-10-29 09:00:00 22.6 16 Este 21 Este 0 -- -- 90
2019-10-29 08:00:00 22.3 14 Este 20 Este 0 -- -- 92
2019-10-29 07:00:00 21.9 16 Este 21 Sudeste 0 -- -- 92
2019-10-29 06:00:00 21.9 17 Este 20 Este 0 -- -- 91
2019-10-29 05:00:00 22 16 Este 21 Este 0 -- -- 91
2019-10-29 04:00:00 22.1 16 Este 21 Este 0 -- -- 93
2019-10-29 03:00:00 22.3 16 Sudeste 25 Sudeste 0 -- -- 91
2019-10-29 02:00:00 22.1 13 Sudeste 16 Sudeste 0 -- -- 87
2019-10-29 01:00:00 22.5 13 Sudeste 15 Sudeste 0 -- -- 76
2019-10-29 00:00:00 22.7 12 Sudeste 15 Sudeste 0 -- -- 70
2019-10-28 23:00:00 22.8 8 Sudeste 13 Sudeste 0 -- -- 65
2019-10-28 22:00:00 23.2 9 Sudeste 10 Sudeste 0 -- -- 65
2019-10-28 21:00:00 23.2 4 Sudeste 8 Sudeste 0 -- -- 68
2019-10-28 20:00:00 23.2 6 Sudeste 7 Sudeste 0 -- -- 70
2019-10-28 19:00:00 23.6 5 Sudeste 9 Sudeste 0 -- -- 68
2019-10-28 18:00:00 23.6 8 Sudeste 11 Sudeste 0 -- -- 74
2019-10-28 17:00:00 24.2 10 Sudeste 13 Sudeste 0 -- -- 71
2019-10-28 16:00:00 25 10 Sudeste 14 Sudeste 0 -- -- 66
2019-10-28 15:00:00 24.8 12 Sudeste 16 Sudeste 0 -- -- 66
2019-10-28 14:00:00 24.4 14 Sudeste 20 Sudeste 0 -- -- 71
2019-10-28 13:00:00 24.2 13 Sudeste 15 Sudeste 0 -- -- 79
2019-10-28 12:00:00 24 13 Sudeste 18 Este 0 -- -- 79
2019-10-28 11:00:00 23.4 15 Sudeste 21 Sudeste 0 -- -- 84
2019-10-28 10:00:00 23.7 14 Sudeste 21 Sudeste 0 -- -- 84
2019-10-28 09:00:00 23 16 Sudeste 24 Sudeste 0 -- -- 85
2019-10-28 08:00:00 22.4 15 Sudeste 23 Sudeste 0 -- -- 88
2019-10-28 07:00:00 21.6 11 Sudeste 17 Sudeste 0 -- -- 88
2019-10-28 06:00:00 21.9 13 Sudeste 18 Sudeste 0 -- -- 84
2019-10-28 05:00:00 21.9 14 Sudeste 22 Sudeste 0 -- -- 78
2019-10-28 04:00:00 22.2 15 Sudeste 19 Sudeste 0 -- -- 70
2019-10-28 03:00:00 22.1 15 Sudeste 21 Sudeste 0 -- -- 70
2019-10-28 02:00:00 22.3 16 Sudeste 22 Sudeste 0 -- -- 76
2019-10-28 01:00:00 22.8 15 Sudeste 23 Sudeste 0 -- -- 77
2019-10-28 00:00:00 23.1 13 Sudeste 19 Sudeste 0 -- -- 68
2019-10-27 23:00:00 22.7 8 Sudeste 13 Sudeste 0 -- -- 70
2019-10-27 22:00:00 22.9 10 Sudeste 13 Sudeste 0 -- -- 75
2019-10-27 21:00:00 23.6 10 Este 19 Sudeste 0 -- -- 75
2019-10-27 20:00:00 23.5 11 Sudeste 17 Sudeste 0 -- -- 66
2019-10-27 19:00:00 23.8 9 Sudeste 15 Sudeste 0 -- -- 62
2019-10-27 18:00:00 24.9 3 Este 5 Sur 0 -- -- 53
2019-10-27 17:00:00 24.4 2 Nordeste 13 Este 0 -- -- 66
2019-10-27 16:00:00 24.3 8 Sudeste 16 Este 0 -- -- 78
2019-10-27 15:00:00 25.5 9 Sudeste 12 Sudeste 0 -- -- 66
2019-10-27 14:00:00 25.5 6 Norte 15 Noroeste 0 -- -- 78
2019-10-27 13:00:00 24.9 15 Noroeste 19 Noroeste 0 -- -- 72
2019-10-27 12:00:00 25.4 9 Este 17 Este 0 -- -- 50
2019-10-27 11:00:00 24.1 10 Este 18 Este 0 -- -- 64
2019-10-27 10:00:00 23.6 13 Este 17 Este 0 -- -- 68
2019-10-27 09:00:00 23.4 9 Este 15 Este 0 -- -- 65
2019-10-27 08:00:00 23 8 Este 15 Nordeste 0 -- -- 73
2019-10-27 07:00:00 22.5 13 Este 17 Este 0 -- -- 80
2019-10-27 06:00:00 22.2 13 Este 19 Este 0 -- -- 88
2019-10-27 05:00:00 22.9 13 Este 19 Este 0 -- -- 75
2019-10-27 04:00:00 22.8 22 Sudeste 35 Sudeste 0 -- -- 65
2019-10-27 03:00:00 22.1 20 Sudeste 28 Sudeste 0 -- -- 78
2019-10-27 02:00:00 21.9 21 Sudeste 27 Sudeste 0 -- -- 85
2019-10-27 01:00:00 21.8 21 Sudeste 36 Sudeste 0 -- -- 93
2019-10-27 00:00:00 22.4 16 Sudeste 23 Sudeste 0 -- -- 91
2019-10-26 23:00:00 22.6 4 Sur 11 Sudeste 0 -- -- 90
2019-10-26 22:00:00 23 11 Sudeste 21 Este 0 -- -- 88
2019-10-26 21:00:00 24.5 5 Sudoeste 14 Este 0 -- -- 80
2019-10-26 20:00:00 23.5 2 Sur 22 Norte 0 -- -- 88
2019-10-26 19:00:00 22.4 23 Norte 35 Norte 2 -- -- 92
2019-10-26 18:00:00 22.7 22 Oeste 40 Oeste 0.4 -- -- 81
2019-10-26 17:00:00 25.1 20 Oeste 31 Oeste 0 -- -- 36
2019-10-26 16:00:00 25.1 5 Noroeste 12 Sudoeste 0 -- -- 51
2019-10-26 15:00:00 23.8 8 Sudoeste 12 Sudoeste 0 -- -- 64
2019-10-26 14:00:00 23.1 10 Noroeste 28 Noroeste 0 -- -- 86
2019-10-26 13:00:00 22.9 17 Noroeste 30 Oeste 0 -- -- 90
2019-10-26 12:00:00 23.9 22 Oeste 34 Oeste 0 -- -- 75
2019-10-26 11:00:00 23.9 10 Noroeste 18 Noroeste 0 -- -- 71
2019-10-26 10:00:00 23.4 3 Oeste 13 Noroeste 0 -- -- 79
2019-10-26 09:00:00 22.5 7 Sudeste 11 Este 0 -- -- 90
2019-10-26 08:00:00 22.2 8 Este 14 Este 0 -- -- 86
2019-10-26 07:00:00 21.5 8 Sudeste 17 Sudeste 0 -- -- 71
2019-10-26 06:00:00 21.4 9 Sudeste 13 Sudeste 0 -- -- 63
2019-10-26 05:00:00 22.2 0 Calma 6 Noroeste 0 -- -- 65
2019-10-26 04:00:00 22.5 0 Calma 8 Oeste 0 -- -- 57
2019-10-26 03:00:00 22.5 6 Oeste 13 Oeste 0 -- -- 61
2019-10-26 02:00:00 22.3 5 Oeste 10 Oeste 0 -- -- 66
2019-10-26 01:00:00 22.6 6 Oeste 13 Oeste 0 -- -- 70
2019-10-26 00:00:00 22.7 10 Oeste 14 Oeste 0 -- -- 73
2019-10-25 23:00:00 22 4 Noroeste 6 Noroeste 0 -- -- 84
2019-10-25 22:00:00 22.3 2 Norte 6 Sudeste 0 -- -- 85
2019-10-25 21:00:00 22.2 4 Sudeste 8 Sur 0 -- -- 83
2019-10-25 20:00:00 22.2 5 Sudeste 9 Sudeste 0 -- -- 85
2019-10-25 19:00:00 22.3 6 Sudeste 12 Sudeste 0 -- -- 84
2019-10-25 18:00:00 22.5 9 Este 18 Sudeste 0 -- -- 83
2019-10-25 17:00:00 22.5 15 Este 20 Este 0 -- -- 76
2019-10-25 16:00:00 22.5 17 Sudeste 23 Este 0 -- -- 70
2019-10-25 15:00:00 22.4 19 Este 27 Este 0 -- -- 66
2019-10-25 14:00:00 23 14 Este 22 Este 0 -- -- 69
2019-10-25 13:00:00 22.2 16 Sudeste 22 Sudeste 0 -- -- 74
2019-10-25 12:00:00 22.5 17 Este 26 Sudeste 0 -- -- 75
2019-10-25 11:00:00 21.4 18 Este 28 Este 0 -- -- 83
2019-10-25 10:00:00 21.3 13 Este 18 Este 0 -- -- 87
2019-10-25 09:00:00 20.8 15 Este 22 Sudeste 0 -- -- 90
2019-10-25 08:00:00 20.4 15 Este 23 Este 0 -- -- 90
2019-10-25 07:00:00 20.3 17 Este 22 Este 0 -- -- 89
2019-10-25 06:00:00 20.2 14 Este 18 Este 0 -- -- 88
2019-10-25 05:00:00 19.9 12 Este 15 Este 0 -- -- 87
2019-10-25 04:00:00 19.7 10 Este 17 Este 0 -- -- 87
2019-10-25 03:00:00 19.7 9 Este 15 Este 0 -- -- 87
2019-10-25 02:00:00 19.7 9 Este 16 Este 0 -- -- 80
2019-10-25 01:00:00 20 13 Este 22 Este 0 -- -- 76
2019-10-25 00:00:00 20.2 15 Este 21 Este 0 -- -- 77
2019-10-24 23:00:00 20.1 14 Este 23 Este 0 -- -- 74
2019-10-24 22:00:00 20.1 15 Este 24 Este 0 -- -- 72
2019-10-24 21:00:00 20.4 18 Este 26 Este 0 -- -- 69
2019-10-24 20:00:00 20.5 18 Este 25 Nordeste 0 -- -- 67
2019-10-24 19:00:00 20.8 19 Este 25 Este 0 -- -- 64
2019-10-24 18:00:00 21.7 17 Este 27 Este 0 -- -- 59
2019-10-24 17:00:00 22.2 19 Este 33 Este 0 -- -- 57
2019-10-24 16:00:00 22.3 18 Este 32 Este 0 -- -- 57
2019-10-24 15:00:00 22.1 25 Este 33 Este 0 -- -- 58
2019-10-24 14:00:00 22.4 21 Este 30 Este 0 -- -- 54
2019-10-24 13:00:00 22.4 22 Este 32 Este 0 -- -- 55
2019-10-24 12:00:00 21.8 21 Nordeste 31 Nordeste 0 -- -- 59
2019-10-24 11:00:00 21.6 22 Nordeste 35 Nordeste 0 -- -- 56
2019-10-24 10:00:00 20.5 15 Nordeste 22 Nordeste 0 -- -- 62
2019-10-24 09:00:00 20.3 18 Nordeste 24 Nordeste 0 -- -- 61
2019-10-24 08:00:00 19.7 18 Nordeste 27 Nordeste 0 -- -- 62
2019-10-24 07:00:00 19.8 21 Nordeste 28 Norte 0 -- -- 61
2019-10-24 06:00:00 19.9 22 Nordeste 28 Nordeste 0 -- -- 62
2019-10-24 05:00:00 19.9 22 Nordeste 36 Nordeste 0 -- -- 61
2019-10-24 04:00:00 20 23 Nordeste 30 Nordeste 0 -- -- 62
2019-10-24 03:00:00 20 21 Nordeste 26 Nordeste 0 -- -- 61
2019-10-24 02:00:00 20 18 Nordeste 26 Norte 0 -- -- 61
2019-10-24 01:00:00 20.3 22 Nordeste 31 Nordeste 0 -- -- 59
2019-10-24 00:00:00 20.4 22 Nordeste 31 Nordeste 0 -- -- 60
2019-10-23 23:00:00 20.6 26 Nordeste 33 Nordeste 0 -- -- 62
2019-10-23 22:00:00 20.6 18 Nordeste 27 Nordeste 0 -- -- 58
2019-10-23 21:00:00 20.7 22 Norte 31 Nordeste 0 -- -- 56
2019-10-23 20:00:00 21 23 Nordeste 31 Nordeste 0 -- -- 53
2019-10-23 19:00:00 21 22 Nordeste 32 Nordeste 0 -- -- 56
2019-10-23 18:00:00 21.5 21 Nordeste 28 Nordeste 0 -- -- 52
2019-10-23 17:00:00 22.1 15 Nordeste 28 Nordeste 0 -- -- 50
2019-10-23 16:00:00 22.2 20 Nordeste 32 Nordeste 0 -- -- 49
2019-10-23 15:00:00 22.3 23 Nordeste 36 Nordeste 0 -- -- 45
2019-10-23 14:00:00 22.3 26 Este 43 Este 0 -- -- 44
2019-10-23 13:00:00 22 24 Este 42 Este 0 -- -- 49
2019-10-23 12:00:00 21.9 18 Nordeste 27 Nordeste 0 -- -- 53
2019-10-23 11:00:00 21.4 17 Nordeste 24 Nordeste 0 -- -- 58
2019-10-23 10:00:00 20.7 19 Nordeste 29 Nordeste 0 -- -- 62
2019-10-23 09:00:00 20 21 Norte 37 Norte 0 -- -- 61
2019-10-23 08:00:00 19.9 18 Norte 27 Norte 0 -- -- 62
2019-10-23 07:00:00 19.8 22 Nordeste 31 Norte 0 -- -- 66
2019-10-23 06:00:00 20 21 Norte 32 Norte 0 -- -- 64
2019-10-23 05:00:00 19.9 20 Norte 31 Norte 0 -- -- 65
2019-10-23 04:00:00 19.9 16 Norte 38 Norte 0 -- -- 66
2019-10-23 03:00:00 20.2 21 Norte 30 Norte 0 -- -- 60
2019-10-23 02:00:00 20.4 23 Norte 34 Norte 0 -- -- 60
2019-10-23 01:00:00 20.6 24 Norte 36 Norte 0 -- -- 61
2019-10-23 00:00:00 20.6 21 Norte 32 Norte 0 -- -- 60
2019-10-22 23:00:00 20.8 19 Norte 30 Norte 0 -- -- 59
2019-10-22 22:00:00 20.8 23 Norte 33 Norte 0 -- -- 60
2019-10-22 21:00:00 20.7 24 Norte 36 Norte 0 -- -- 59
2019-10-22 20:00:00 20.8 28 Norte 44 Noroeste 0 -- -- 58
2019-10-22 19:00:00 21.1 28 Norte 39 Norte 0 -- -- 61
2019-10-22 18:00:00 21.7 30 Norte 41 Norte 0 -- -- 54
2019-10-22 17:00:00 21.9 28 Norte 36 Norte 0 -- -- 55
2019-10-22 16:00:00 22.5 31 Norte 39 Noroeste 0 -- -- 48
2019-10-22 15:00:00 22.9 28 Norte 44 Noroeste 0 -- -- 45
2019-10-22 14:00:00 22.6 28 Norte 41 Norte 0 -- -- 45
2019-10-22 13:00:00 22.4 30 Norte 42 Norte 0 -- -- 47
2019-10-22 12:00:00 22 27 Norte 47 Norte 0 -- -- 51
2019-10-22 11:00:00 21.9 27 Norte 39 Norte 0 -- -- 49
2019-10-22 10:00:00 21.5 27 Norte 37 Norte 0 -- -- 53
2019-10-22 09:00:00 20.5 19 Norte 28 Norte 0 -- -- 58
2019-10-22 08:00:00 20.1 22 Norte 35 Norte 0 -- -- 58
2019-10-22 07:00:00 20.3 28 Norte 37 Norte 0 -- -- 57
2019-10-22 06:00:00 20.3 25 Norte 35 Norte 0 -- -- 60
2019-10-22 05:00:00 20.3 29 Norte 37 Norte 0 -- -- 57
2019-10-22 04:00:00 20.2 23 Norte 35 Norte 0 -- -- 59
2019-10-22 03:00:00 20.4 27 Norte 36 Norte 0 -- -- 55
2019-10-22 02:00:00 20.5 28 Norte 37 Norte 0 -- -- 57
2019-10-22 01:00:00 20.9 29 Norte 38 Norte 0 -- -- 57
2019-10-22 00:00:00 21 26 Norte 40 Norte 0 -- -- 58
2019-10-21 23:00:00 21 25 Norte 39 Norte 0 -- -- 58
2019-10-21 22:00:00 21.1 26 Norte 35 Norte 0 -- -- 57
2019-10-21 21:00:00 21.2 29 Norte 40 Norte 0 -- -- 51
2019-10-21 20:00:00 21.3 28 Norte 38 Norte 0 -- -- 55
2019-10-21 19:00:00 21.5 27 Norte 40 Norte 0 -- -- 56
2019-10-21 18:00:00 22.1 32 Norte 51 Norte 0 -- -- 55
2019-10-21 17:00:00 22.6 31 Norte 45 Norte 0 -- -- 49
2019-10-21 16:00:00 22.7 31 Norte 46 Noroeste 0 -- -- 49
2019-10-21 15:00:00 22.9 29 Norte 41 Norte 0 -- -- 49
2019-10-21 14:00:00 21.3 18 Noroeste 42 Norte 0 -- -- 63
2019-10-21 13:00:00 22.3 19 Norte 46 Norte 0 -- -- 56
2019-10-21 12:00:00 20.8 41 Norte 67 Norte 0 -- -- 67
2019-10-21 11:00:00 21.6 20 Nordeste 39 Norte 0 -- -- 62
2019-10-21 10:00:00 21.7 21 Norte 28 Norte 0 -- -- 58
2019-10-21 09:00:00 21 22 Norte 29 Nordeste 0 -- -- 58
2019-10-21 08:00:00 20.7 20 Norte 29 Nordeste 0 -- -- 62
2019-10-21 07:00:00 20.5 21 Nordeste 30 Nordeste 0 -- -- 61
2019-10-21 06:00:00 20.4 20 Nordeste 29 Norte 0 -- -- 61
2019-10-21 05:00:00 20.7 24 Norte 37 Norte 0 -- -- 63
2019-10-21 04:00:00 20.9 28 Nordeste 39 Nordeste 0 -- -- 62
2019-10-21 03:00:00 20.8 21 Nordeste 32 Nordeste 0 -- -- 63
2019-10-21 02:00:00 20.9 23 Norte 33 Norte 0 -- -- 64
2019-10-21 01:00:00 21 18 Nordeste 25 Norte 0 -- -- 65
2019-10-21 00:00:00 21.2 21 Norte 28 Nordeste 0 -- -- 65
2019-10-20 23:00:00 21.5 23 Nordeste 29 Nordeste 0 -- -- 66
2019-10-20 22:00:00 21.6 21 Nordeste 31 Nordeste 0 -- -- 70
2019-10-20 21:00:00 21.9 19 Nordeste 30 Nordeste 0 -- -- 67
2019-10-20 20:00:00 22.3 23 Norte 30 Norte 0 -- -- 65
2019-10-20 19:00:00 22.4 18 Nordeste 29 Nordeste 0 -- -- 76
2019-10-20 18:00:00 23 17 Nordeste 27 Este 0 -- -- 72
2019-10-20 17:00:00 22.9 18 Nordeste 27 Nordeste 0 -- -- 71
2019-10-20 16:00:00 23.2 22 Nordeste 31 Nordeste 0 -- -- 72
2019-10-20 15:00:00 23.1 23 Nordeste 37 Nordeste 0 -- -- 73
2019-10-20 14:00:00 22.5 27 Nordeste 36 Este 0.2 -- -- 85
2019-10-20 13:00:00 21 12 Norte 39 Nordeste 0.2 -- -- 95
2019-10-20 12:00:00 21.8 32 Nordeste 48 Nordeste 0 -- -- 88
2019-10-20 11:00:00 23.2 16 Norte 23 Norte 0 -- -- 82
2019-10-20 10:00:00 22.7 14 Norte 21 Norte 0 -- -- 85
2019-10-20 09:00:00 22.3 17 Norte 23 Norte 0 -- -- 86
2019-10-20 08:00:00 21.7 15 Norte 21 Norte 0 -- -- 88
2019-10-20 07:00:00 21.9 19 Norte 26 Norte 0 -- -- 89
2019-10-20 06:00:00 22 18 Norte 25 Norte 0 -- -- 90
2019-10-20 05:00:00 22 19 Norte 27 Norte 0 -- -- 91
2019-10-20 04:00:00 22 19 Norte 32 Norte 0 -- -- 90
2019-10-20 03:00:00 22 21 Norte 31 Noroeste 0 -- -- 90
2019-10-20 02:00:00 22 23 Norte 32 Noroeste 0 -- -- 89
2019-10-20 01:00:00 22 21 Norte 29 Noroeste 0 -- -- 89
2019-10-20 00:00:00 22.1 22 Norte 31 Norte 0 -- -- 90
2019-10-19 23:00:00 22.3 22 Norte 31 Noroeste 0 -- -- 89
2019-10-19 22:00:00 22.3 22 Norte 33 Norte 0 -- -- 88
2019-10-19 21:00:00 22.2 23 Norte 31 Norte 0 -- -- 88
2019-10-19 20:00:00 22.3 25 Norte 35 Noroeste 0 -- -- 87
2019-10-19 19:00:00 22.5 30 Noroeste 36 Norte 0 -- -- 82
2019-10-19 18:00:00 23 28 Noroeste 44 Noroeste 0 -- -- 78
2019-10-19 17:00:00 23.4 24 Noroeste 36 Noroeste 0 -- -- 71
2019-10-19 16:00:00 23.3 27 Noroeste 37 Noroeste 0 -- -- 73
2019-10-19 15:00:00 23.8 28 Noroeste 49 Norte 0 -- -- 71
2019-10-19 14:00:00 23.8 27 Noroeste 45 Noroeste 0 -- -- 72
2019-10-19 13:00:00 23.6 22 Noroeste 31 Noroeste 0 -- -- 71
2019-10-19 12:00:00 24 19 Norte 27 Norte 0 -- -- 68
2019-10-19 11:00:00 23.5 8 Norte 15 Norte 0 -- -- 71
2019-10-19 10:00:00 22.7 13 Nordeste 20 Norte 0 -- -- 73
2019-10-19 09:00:00 22 17 Norte 22 Norte 0 -- -- 78
2019-10-19 08:00:00 21.5 13 Nordeste 18 Nordeste 0 -- -- 81
2019-10-19 07:00:00 21.4 10 Norte 15 Nordeste 0 -- -- 80
2019-10-19 06:00:00 21.4 10 Nordeste 13 Nordeste 0 -- -- 81
2019-10-19 05:00:00 21.5 10 Nordeste 16 Norte 0 -- -- 80
2019-10-19 04:00:00 21.5 13 Norte 18 Norte 0 -- -- 80
2019-10-19 03:00:00 21.6 12 Nordeste 23 Norte 0 -- -- 79
2019-10-19 02:00:00 21.6 14 Norte 20 Norte 0 -- -- 79
2019-10-19 01:00:00 21.5 9 Nordeste 22 Norte 0 -- -- 80
2019-10-19 00:00:00 21.8 21 Norte 26 Norte 0 -- -- 81
2019-10-18 23:00:00 21.9 19 Norte 33 Norte 0 -- -- 78
2019-10-18 22:00:00 22 22 Norte 34 Norte 0 -- -- 75
2019-10-18 21:00:00 22.1 23 Norte 35 Norte 0 -- -- 74
2019-10-18 20:00:00 22.3 30 Norte 37 Norte 0 -- -- 71
2019-10-18 19:00:00 22.7 30 Norte 39 Norte 0 -- -- 69
2019-10-18 18:00:00 23.1 28 Norte 40 Norte 0 -- -- 69
2019-10-18 17:00:00 23.1 31 Noroeste 40 Noroeste 0 -- -- 69
2019-10-18 16:00:00 23.3 31 Noroeste 48 Noroeste 0 -- -- 66
2019-10-18 15:00:00 23.7 30 Norte 41 Norte 0 -- -- 64
2019-10-18 14:00:00 23.4 13 Nordeste 32 Noroeste 0 -- -- 64
2019-10-18 13:00:00 24.3 13 Norte 26 Norte 0 -- -- 62
2019-10-18 12:00:00 24.6 5 Nordeste 9 Nordeste 0 -- -- 55
2019-10-18 11:00:00 24.2 4 Nordeste 13 Nordeste 0 -- -- 61
2019-10-18 10:00:00 22.3 9 Nordeste 16 Nordeste 0 -- -- 69
2019-10-18 09:00:00 21.4 13 Norte 21 Norte 0 -- -- 72
2019-10-18 08:00:00 21.1 18 Norte 28 Norte 0 -- -- 74
2019-10-18 07:00:00 21.1 16 Norte 24 Norte 0 -- -- 75
2019-10-18 06:00:00 21.1 13 Norte 22 Norte 0 -- -- 75
2019-10-18 05:00:00 21.2 11 Norte 15 Norte 0 -- -- 77
2019-10-18 04:00:00 21.3 12 Norte 18 Norte 0 -- -- 76
2019-10-18 03:00:00 21.3 13 Norte 19 Norte 0 -- -- 76
2019-10-18 02:00:00 21.4 14 Norte 21 Norte 0 -- -- 76
2019-10-18 01:00:00 21.4 17 Norte 24 Norte 0 -- -- 74
2019-10-18 00:00:00 21.7 18 Norte 28 Norte 0 -- -- 77
2019-10-17 23:00:00 21.7 22 Norte 30 Norte 0 -- -- 77
2019-10-17 22:00:00 21.6 21 Norte 30 Norte 0 -- -- 76
2019-10-17 21:00:00 21.9 20 Norte 28 Norte 0 -- -- 73
2019-10-17 20:00:00 22 23 Norte 33 Norte 0 -- -- 70
2019-10-17 19:00:00 22.4 25 Norte 33 Noroeste 0 -- -- 67
2019-10-17 18:00:00 22.5 18 Norte 26 Noroeste 0 -- -- 66
2019-10-17 17:00:00 22.9 9 Nordeste 20 Nordeste 0 -- -- 62
2019-10-17 16:00:00 22.8 14 Nordeste 27 Nordeste 0 -- -- 63
2019-10-17 15:00:00 23.6 13 Nordeste 21 Nordeste 0 -- -- 58
2019-10-17 14:00:00 24.6 12 Este 24 Este 0 -- -- 52
2019-10-17 13:00:00 24.3 13 Este 22 Nordeste 0 -- -- 49
2019-10-17 12:00:00 23.3 15 Nordeste 25 Norte 0 -- -- 46
2019-10-17 11:00:00 22.8 21 Norte 33 Norte 0 -- -- 53
2019-10-17 10:00:00 22.3 15 Norte 23 Norte 0 -- -- 64
2019-10-17 09:00:00 21.4 16 Norte 23 Norte 0 -- -- 68
2019-10-17 08:00:00 20.8 12 Norte 17 Norte 0 -- -- 71
2019-10-17 07:00:00 20.8 13 Nordeste 20 Nordeste 0 -- -- 69
2019-10-17 06:00:00 20.7 10 Norte 17 Norte 0 -- -- 73
2019-10-17 05:00:00 20.8 14 Nordeste 20 Nordeste 0 -- -- 74
2019-10-17 04:00:00 20.9 13 Nordeste 18 Nordeste 0 -- -- 73
2019-10-17 03:00:00 20.9 12 Nordeste 18 Nordeste 0 -- -- 72
2019-10-17 02:00:00 21.1 14 Nordeste 20 Nordeste 0 -- -- 71
2019-10-17 01:00:00 21.2 10 Nordeste 17 Este 0 -- -- 70
2019-10-17 00:00:00 21.4 9 Nordeste 19 Norte 0 -- -- 69
2019-10-16 23:00:00 21.8 17 Norte 26 Norte 0 -- -- 70
2019-10-16 22:00:00 21.9 17 Norte 23 Norte 0 -- -- 70
2019-10-16 21:00:00 22.1 14 Norte 21 Norte 0 -- -- 69
2019-10-16 20:00:00 21.9 3 Sur 14 Nordeste 0 -- -- 69
2019-10-16 19:00:00 21.8 6 Nordeste 13 Este 0 -- -- 68
2019-10-16 18:00:00 22.3 10 Nordeste 18 Este 0 -- -- 69
2019-10-16 17:00:00 22.7 12 Nordeste 22 Este 0 -- -- 66
2019-10-16 16:00:00 22.8 16 Este 25 Este 0 -- -- 68
2019-10-16 15:00:00 22.5 18 Este 26 Este 0 -- -- 66
2019-10-16 14:00:00 23.4 15 Este 28 Este 0 -- -- 63
2019-10-16 13:00:00 23.7 20 Este 30 Este 0 -- -- 62
2019-10-16 12:00:00 24.1 14 Este 21 Este 0 -- -- 60
2019-10-16 11:00:00 22.9 13 Nordeste 18 Nordeste 0 -- -- 65
2019-10-16 10:00:00 22 15 Nordeste 19 Nordeste 0 -- -- 70
2019-10-16 09:00:00 21.6 12 Nordeste 19 Norte 0 -- -- 70
2019-10-16 08:00:00 20.9 14 Nordeste 19 Nordeste 0 -- -- 74
2019-10-16 07:00:00 21.1 11 Nordeste 18 Nordeste 0 -- -- 72
2019-10-16 06:00:00 21.1 12 Norte 18 Norte 0 -- -- 73
2019-10-16 05:00:00 21.1 4 Norte 15 Nordeste 0 -- -- 71
2019-10-16 04:00:00 21.3 10 Norte 18 Nordeste 0 -- -- 72
2019-10-16 03:00:00 21.3 17 Nordeste 24 Norte 0 -- -- 70
2019-10-16 02:00:00 21.5 19 Nordeste 27 Nordeste 0 -- -- 69
2019-10-16 01:00:00 21.4 14 Nordeste 20 Norte 0 -- -- 66
2019-10-16 00:00:00 21.6 15 Nordeste 22 Nordeste 0 -- -- 67
2019-10-15 23:00:00 21.6 21 Nordeste 27 Nordeste 0 -- -- 66
2019-10-15 22:00:00 21.7 21 Nordeste 35 Nordeste 0 -- -- 67
2019-10-15 21:00:00 22 18 Nordeste 28 Este 0 -- -- 68
2019-10-15 20:00:00 22.1 23 Nordeste 35 Este 0 -- -- 66
2019-10-15 19:00:00 22.4 26 Nordeste 40 Nordeste 0 -- -- 63
2019-10-15 18:00:00 23.1 24 Nordeste 35 Nordeste 0 -- -- 61
2019-10-15 17:00:00 22.5 20 Nordeste 26 Nordeste 0 -- -- 62
2019-10-15 16:00:00 24.1 13 Este 27 Este 0 -- -- 51
2019-10-15 15:00:00 24.1 13 Este 21 Este 0 -- -- 49
2019-10-15 14:00:00 23.8 14 Este 22 Nordeste 0 -- -- 50
2019-10-15 13:00:00 23.7 12 Nordeste 21 Nordeste 0 -- -- 52
2019-10-15 12:00:00 23 13 Nordeste 21 Nordeste 0 -- -- 56
2019-10-15 11:00:00 22.4 15 Nordeste 23 Nordeste 0 -- -- 59
2019-10-15 10:00:00 22 10 Norte 22 Norte 0 -- -- 58
2019-10-15 09:00:00 21.3 19 Norte 25 Norte 0 -- -- 66
2019-10-15 08:00:00 21 19 Nordeste 28 Nordeste 0 -- -- 67
2019-10-15 07:00:00 21 22 Nordeste 33 Nordeste 0 -- -- 70
2019-10-15 06:00:00 21 18 Nordeste 27 Nordeste 0 -- -- 70
2019-10-15 05:00:00 21 17 Nordeste 29 Nordeste 0 -- -- 70
2019-10-15 04:00:00 21.1 17 Nordeste 26 Norte 0 -- -- 69
2019-10-15 03:00:00 21.2 20 Nordeste 30 Norte 0 -- -- 72
2019-10-15 02:00:00 21.3 19 Nordeste 27 Nordeste 0 -- -- 76
2019-10-15 01:00:00 21.5 23 Nordeste 29 Nordeste 0 -- -- 73
2019-10-15 00:00:00 21.6 17 Nordeste 25 Nordeste 0 -- -- 74
2019-10-14 23:00:00 21.7 18 Nordeste 28 Nordeste 0 -- -- 73
2019-10-14 22:00:00 21.8 22 Nordeste 28 Nordeste 0 -- -- 72
2019-10-14 21:00:00 22.1 21 Nordeste 31 Nordeste 0 -- -- 72
2019-10-14 20:00:00 22.7 20 Norte 29 Nordeste 0 -- -- 70
2019-10-14 19:00:00 22.7 19 Nordeste 36 Nordeste 0 -- -- 74
2019-10-14 18:00:00 23 14 Nordeste 21 Nordeste 0 -- -- 74
2019-10-14 17:00:00 23.2 10 Nordeste 19 Nordeste 0 -- -- 73
2019-10-14 16:00:00 23.4 14 Nordeste 23 Nordeste 0 -- -- 74
2019-10-14 15:00:00 23.9 16 Este 23 Este 0 -- -- 69
2019-10-14 14:00:00 24.5 13 Este 19 Este 0 -- -- 68
2019-10-14 13:00:00 23.8 8 Sudeste 12 Sudeste 0 -- -- 68
2019-10-14 12:00:00 23.8 7 Norte 11 Nordeste 0 -- -- 72
2019-10-14 11:00:00 23.3 6 Nordeste 17 Norte 0 -- -- 78
2019-10-14 10:00:00 22.1 14 Norte 22 Norte 0 -- -- 86
2019-10-14 09:00:00 21.9 12 Norte 18 Norte 0 -- -- 86
2019-10-14 08:00:00 21.7 13 Norte 18 Norte 0 -- -- 87
2019-10-14 07:00:00 21.8 15 Norte 20 Norte 0 -- -- 87
2019-10-14 06:00:00 20.8 0 Calma 7 Oeste 0 -- -- 81
2019-10-14 05:00:00 20.8 5 Oeste 6 Oeste 0 -- -- 77
2019-10-14 04:00:00 20.6 4 Sudoeste 9 Oeste 0 -- -- 72
2019-10-14 03:00:00 20.8 6 Oeste 8 Oeste 0 -- -- 69
2019-10-14 02:00:00 20.9 4 Oeste 8 Sudoeste 0 -- -- 67
2019-10-14 01:00:00 21 5 Sudoeste 8 Oeste 0 -- -- 65
2019-10-14 00:00:00 21.2 5 Oeste 7 Oeste 0 -- -- 63